sensor_id;sensor_type;location;lat;lon;timestamp;P1;durP1;ratioP1;P2;durP2;ratioP2
20966;SDS011;10642;50.682;18.510;2023-07-13T00:00:11;18.20;;;9.70;;
20966;SDS011;10642;50.682;18.510;2023-07-13T00:02:40;17.50;;;9.73;;
20966;SDS011;10642;50.682;18.510;2023-07-13T00:05:07;10.83;;;7.10;;
20966;SDS011;10642;50.682;18.510;2023-07-13T00:07:34;11.20;;;7.33;;
20966;SDS011;10642;50.682;18.510;2023-07-13T00:10:02;12.80;;;6.67;;
20966;SDS011;10642;50.682;18.510;2023-07-13T00:12:31;11.23;;;6.23;;
20966;SDS011;10642;50.682;18.510;2023-07-13T00:14:59;9.13;;;6.87;;
20966;SDS011;10642;50.682;18.510;2023-07-13T00:17:26;10.00;;;6.93;;
20966;SDS011;10642;50.682;18.510;2023-07-13T00:19:54;11.97;;;6.30;;
20966;SDS011;10642;50.682;18.510;2023-07-13T00:22:22;14.73;;;5.93;;
20966;SDS011;10642;50.682;18.510;2023-07-13T00:24:53;10.37;;;5.57;;
20966;SDS011;10642;50.682;18.510;2023-07-13T00:27:22;9.57;;;5.77;;
20966;SDS011;10642;50.682;18.510;2023-07-13T00:29:49;11.47;;;5.77;;
20966;SDS011;10642;50.682;18.510;2023-07-13T00:32:17;11.17;;;6.47;;
20966;SDS011;10642;50.682;18.510;2023-07-13T00:34:44;9.47;;;6.03;;
20966;SDS011;10642;50.682;18.510;2023-07-13T00:37:11;9.70;;;6.07;;
20966;SDS011;10642;50.682;18.510;2023-07-13T00:39:38;12.93;;;5.87;;
20966;SDS011;10642;50.682;18.510;2023-07-13T00:42:05;8.83;;;6.07;;
20966;SDS011;10642;50.682;18.510;2023-07-13T00:44:32;13.50;;;6.50;;
20966;SDS011;10642;50.682;18.510;2023-07-13T00:47:00;11.70;;;5.93;;
20966;SDS011;10642;50.682;18.510;2023-07-13T00:49:27;10.90;;;5.70;;
20966;SDS011;10642;50.682;18.510;2023-07-13T00:51:57;17.03;;;6.43;;
20966;SDS011;10642;50.682;18.510;2023-07-13T00:54:41;12.43;;;4.97;;
20966;SDS011;10642;50.682;18.510;2023-07-13T00:57:11;8.10;;;5.50;;
20966;SDS011;10642;50.682;18.510;2023-07-13T00:59:40;12.50;;;5.30;;
20966;SDS011;10642;50.682;18.510;2023-07-13T01:02:08;10.23;;;6.40;;
20966;SDS011;10642;50.682;18.510;2023-07-13T01:04:36;11.00;;;5.40;;
20966;SDS011;10642;50.682;18.510;2023-07-13T01:07:02;9.60;;;5.37;;
20966;SDS011;10642;50.682;18.510;2023-07-13T01:09:30;15.67;;;6.10;;
20966;SDS011;10642;50.682;18.510;2023-07-13T01:11:57;9.93;;;6.03;;
20966;SDS011;10642;50.682;18.510;2023-07-13T01:14:23;11.40;;;6.33;;
20966;SDS011;10642;50.682;18.510;2023-07-13T01:16:50;16.87;;;5.90;;
20966;SDS011;10642;50.682;18.510;2023-07-13T01:19:21;15.07;;;6.50;;
20966;SDS011;10642;50.682;18.510;2023-07-13T01:21:52;12.33;;;6.50;;
20966;SDS011;10642;50.682;18.510;2023-07-13T01:24:19;15.23;;;7.10;;
20966;SDS011;10642;50.682;18.510;2023-07-13T01:26:48;8.90;;;6.43;;
20966;SDS011;10642;50.682;18.510;2023-07-13T01:29:15;12.87;;;6.67;;
20966;SDS011;10642;50.682;18.510;2023-07-13T01:31:42;10.50;;;6.47;;
20966;SDS011;10642;50.682;18.510;2023-07-13T01:34:12;9.37;;;5.87;;
20966;SDS011;10642;50.682;18.510;2023-07-13T01:36:39;9.73;;;6.03;;
20966;SDS011;10642;50.682;18.510;2023-07-13T01:39:06;11.33;;;6.67;;
20966;SDS011;10642;50.682;18.510;2023-07-13T01:41:34;13.90;;;5.83;;
20966;SDS011;10642;50.682;18.510;2023-07-13T01:44:01;9.17;;;6.10;;
20966;SDS011;10642;50.682;18.510;2023-07-13T01:46:30;15.20;;;6.20;;
20966;SDS011;10642;50.682;18.510;2023-07-13T01:48:57;17.53;;;7.33;;
20966;SDS011;10642;50.682;18.510;2023-07-13T01:51:24;12.10;;;6.80;;
20966;SDS011;10642;50.682;18.510;2023-07-13T01:53:51;13.67;;;6.07;;
20966;SDS011;10642;50.682;18.510;2023-07-13T01:56:18;9.57;;;6.73;;
20966;SDS011;10642;50.682;18.510;2023-07-13T01:58:45;13.10;;;6.40;;
20966;SDS011;10642;50.682;18.510;2023-07-13T02:01:12;11.27;;;6.83;;
20966;SDS011;10642;50.682;18.510;2023-07-13T02:03:40;14.37;;;6.83;;
20966;SDS011;10642;50.682;18.510;2023-07-13T02:06:07;12.53;;;6.37;;
20966;SDS011;10642;50.682;18.510;2023-07-13T02:08:34;13.77;;;7.10;;
20966;SDS011;10642;50.682;18.510;2023-07-13T02:11:02;10.23;;;6.80;;
20966;SDS011;10642;50.682;18.510;2023-07-13T02:13:30;10.13;;;5.90;;
20966;SDS011;10642;50.682;18.510;2023-07-13T02:15:57;18.23;;;6.97;;
20966;SDS011;10642;50.682;18.510;2023-07-13T02:18:24;23.83;;;7.10;;
20966;SDS011;10642;50.682;18.510;2023-07-13T02:20:51;25.33;;;7.47;;
20966;SDS011;10642;50.682;18.510;2023-07-13T02:23:18;16.80;;;6.83;;
20966;SDS011;10642;50.682;18.510;2023-07-13T02:25:45;17.57;;;6.97;;
20966;SDS011;10642;50.682;18.510;2023-07-13T02:28:14;15.27;;;7.80;;
20966;SDS011;10642;50.682;18.510;2023-07-13T02:30:42;12.73;;;7.30;;
20966;SDS011;10642;50.682;18.510;2023-07-13T02:33:09;26.70;;;7.80;;
20966;SDS011;10642;50.682;18.510;2023-07-13T02:35:36;12.37;;;7.53;;
20966;SDS011;10642;50.682;18.510;2023-07-13T02:38:03;18.97;;;7.37;;
20966;SDS011;10642;50.682;18.510;2023-07-13T02:40:30;17.10;;;7.03;;
20966;SDS011;10642;50.682;18.510;2023-07-13T02:42:59;10.60;;;6.87;;
20966;SDS011;10642;50.682;18.510;2023-07-13T02:45:26;16.87;;;7.23;;
20966;SDS011;10642;50.682;18.510;2023-07-13T02:47:53;11.93;;;7.23;;
20966;SDS011;10642;50.682;18.510;2023-07-13T02:50:20;19.00;;;6.73;;
20966;SDS011;10642;50.682;18.510;2023-07-13T02:52:47;9.93;;;5.87;;
20966;SDS011;10642;50.682;18.510;2023-07-13T02:55:14;19.73;;;6.97;;
20966;SDS011;10642;50.682;18.510;2023-07-13T02:57:41;9.77;;;6.37;;
20966;SDS011;10642;50.682;18.510;2023-07-13T03:00:08;13.30;;;7.20;;
20966;SDS011;10642;50.682;18.510;2023-07-13T03:02:35;18.53;;;7.10;;
20966;SDS011;10642;50.682;18.510;2023-07-13T03:05:03;12.03;;;6.10;;
20966;SDS011;10642;50.682;18.510;2023-07-13T03:07:31;12.73;;;7.00;;
20966;SDS011;10642;50.682;18.510;2023-07-13T03:09:58;17.30;;;6.90;;
20966;SDS011;10642;50.682;18.510;2023-07-13T03:12:34;21.00;;;7.50;;
20966;SDS011;10642;50.682;18.510;2023-07-13T03:15:04;18.90;;;7.43;;
20966;SDS011;10642;50.682;18.510;2023-07-13T03:17:34;13.63;;;7.00;;
20966;SDS011;10642;50.682;18.510;2023-07-13T03:20:01;13.93;;;6.73;;
20966;SDS011;10642;50.682;18.510;2023-07-13T03:22:29;11.10;;;6.90;;
20966;SDS011;10642;50.682;18.510;2023-07-13T03:24:56;12.10;;;7.27;;
20966;SDS011;10642;50.682;18.510;2023-07-13T03:27:23;18.80;;;6.73;;
20966;SDS011;10642;50.682;18.510;2023-07-13T03:29:50;13.33;;;6.40;;
20966;SDS011;10642;50.682;18.510;2023-07-13T03:32:17;23.17;;;7.13;;
20966;SDS011;10642;50.682;18.510;2023-07-13T03:34:44;15.87;;;6.73;;
20966;SDS011;10642;50.682;18.510;2023-07-13T03:37:12;14.60;;;6.47;;
20966;SDS011;10642;50.682;18.510;2023-07-13T03:39:40;10.97;;;6.17;;
20966;SDS011;10642;50.682;18.510;2023-07-13T03:42:07;18.57;;;7.00;;
20966;SDS011;10642;50.682;18.510;2023-07-13T03:44:34;13.47;;;6.30;;
20966;SDS011;10642;50.682;18.510;2023-07-13T03:47:03;17.10;;;6.20;;
20966;SDS011;10642;50.682;18.510;2023-07-13T03:49:30;9.20;;;6.30;;
20966;SDS011;10642;50.682;18.510;2023-07-13T03:51:56;7.80;;;6.50;;
20966;SDS011;10642;50.682;18.510;2023-07-13T03:54:24;8.70;;;6.30;;
20966;SDS011;10642;50.682;18.510;2023-07-13T03:56:51;12.87;;;6.83;;
20966;SDS011;10642;50.682;18.510;2023-07-13T03:59:20;13.37;;;6.97;;
20966;SDS011;10642;50.682;18.510;2023-07-13T04:01:47;9.00;;;6.33;;
20966;SDS011;10642;50.682;18.510;2023-07-13T04:04:14;11.53;;;6.27;;
20966;SDS011;10642;50.682;18.510;2023-07-13T04:06:42;9.97;;;6.33;;
20966;SDS011;10642;50.682;18.510;2023-07-13T04:09:11;11.13;;;6.47;;
20966;SDS011;10642;50.682;18.510;2023-07-13T04:11:38;15.40;;;7.47;;
20966;SDS011;10642;50.682;18.510;2023-07-13T04:14:05;9.73;;;6.93;;
20966;SDS011;10642;50.682;18.510;2023-07-13T04:16:33;11.97;;;6.77;;
20966;SDS011;10642;50.682;18.510;2023-07-13T04:19:00;12.80;;;6.70;;
20966;SDS011;10642;50.682;18.510;2023-07-13T04:21:28;9.43;;;7.10;;
20966;SDS011;10642;50.682;18.510;2023-07-13T04:23:55;16.63;;;7.07;;
20966;SDS011;10642;50.682;18.510;2023-07-13T04:26:23;10.63;;;6.70;;
20966;SDS011;10642;50.682;18.510;2023-07-13T04:28:50;10.90;;;6.63;;
20966;SDS011;10642;50.682;18.510;2023-07-13T04:31:17;10.73;;;6.63;;
20966;SDS011;10642;50.682;18.510;2023-07-13T04:33:44;13.73;;;6.77;;
20966;SDS011;10642;50.682;18.510;2023-07-13T04:36:14;10.77;;;7.17;;
20966;SDS011;10642;50.682;18.510;2023-07-13T04:38:44;11.20;;;7.47;;
20966;SDS011;10642;50.682;18.510;2023-07-13T04:41:12;9.20;;;6.80;;
20966;SDS011;10642;50.682;18.510;2023-07-13T04:43:39;10.67;;;7.50;;
20966;SDS011;10642;50.682;18.510;2023-07-13T04:46:07;13.93;;;8.17;;
20966;SDS011;10642;50.682;18.510;2023-07-13T04:48:34;11.30;;;7.83;;
20966;SDS011;10642;50.682;18.510;2023-07-13T04:51:01;11.77;;;7.93;;
20966;SDS011;10642;50.682;18.510;2023-07-13T04:53:28;10.70;;;7.70;;
20966;SDS011;10642;50.682;18.510;2023-07-13T04:55:55;8.73;;;6.83;;
20966;SDS011;10642;50.682;18.510;2023-07-13T04:58:22;10.83;;;6.90;;
20966;SDS011;10642;50.682;18.510;2023-07-13T05:00:49;9.37;;;6.07;;
20966;SDS011;10642;50.682;18.510;2023-07-13T05:03:16;10.77;;;7.23;;
20966;SDS011;10642;50.682;18.510;2023-07-13T05:05:43;9.57;;;7.17;;
20966;SDS011;10642;50.682;18.510;2023-07-13T05:08:20;10.97;;;7.03;;
20966;SDS011;10642;50.682;18.510;2023-07-13T05:10:47;11.83;;;7.47;;
20966;SDS011;10642;50.682;18.510;2023-07-13T05:13:14;11.70;;;8.33;;
20966;SDS011;10642;50.682;18.510;2023-07-13T05:15:41;10.17;;;7.93;;
20966;SDS011;10642;50.682;18.510;2023-07-13T05:18:08;12.70;;;7.93;;
20966;SDS011;10642;50.682;18.510;2023-07-13T05:20:35;12.83;;;8.03;;
20966;SDS011;10642;50.682;18.510;2023-07-13T05:23:02;13.37;;;8.00;;
20966;SDS011;10642;50.682;18.510;2023-07-13T05:25:29;11.87;;;8.50;;
20966;SDS011;10642;50.682;18.510;2023-07-13T05:27:56;13.50;;;8.17;;
20966;SDS011;10642;50.682;18.510;2023-07-13T05:30:23;11.87;;;8.17;;
20966;SDS011;10642;50.682;18.510;2023-07-13T05:32:50;13.67;;;9.20;;
20966;SDS011;10642;50.682;18.510;2023-07-13T05:35:17;9.73;;;7.60;;
20966;SDS011;10642;50.682;18.510;2023-07-13T05:37:43;12.00;;;7.47;;
20966;SDS011;10642;50.682;18.510;2023-07-13T05:40:10;14.77;;;7.83;;
20966;SDS011;10642;50.682;18.510;2023-07-13T05:42:37;10.70;;;7.93;;
20966;SDS011;10642;50.682;18.510;2023-07-13T05:45:04;11.40;;;8.20;;
20966;SDS011;10642;50.682;18.510;2023-07-13T05:47:31;14.57;;;8.17;;
20966;SDS011;10642;50.682;18.510;2023-07-13T05:49:58;16.07;;;8.13;;
20966;SDS011;10642;50.682;18.510;2023-07-13T05:52:25;12.03;;;8.07;;
20966;SDS011;10642;50.682;18.510;2023-07-13T05:54:52;11.87;;;8.73;;
20966;SDS011;10642;50.682;18.510;2023-07-13T05:57:19;14.33;;;7.87;;
20966;SDS011;10642;50.682;18.510;2023-07-13T05:59:46;11.83;;;7.13;;
20966;SDS011;10642;50.682;18.510;2023-07-13T06:02:13;13.33;;;7.53;;
20966;SDS011;10642;50.682;18.510;2023-07-13T06:04:40;13.17;;;8.00;;
20966;SDS011;10642;50.682;18.510;2023-07-13T06:07:07;13.93;;;7.63;;
20966;SDS011;10642;50.682;18.510;2023-07-13T06:09:34;11.30;;;7.93;;
20966;SDS011;10642;50.682;18.510;2023-07-13T06:12:01;9.77;;;7.10;;
20966;SDS011;10642;50.682;18.510;2023-07-13T06:14:28;10.63;;;7.27;;
20966;SDS011;10642;50.682;18.510;2023-07-13T06:16:55;10.60;;;7.27;;
20966;SDS011;10642;50.682;18.510;2023-07-13T06:19:22;13.97;;;8.10;;
20966;SDS011;10642;50.682;18.510;2023-07-13T06:21:49;11.13;;;7.57;;
20966;SDS011;10642;50.682;18.510;2023-07-13T06:24:15;11.63;;;8.40;;
20966;SDS011;10642;50.682;18.510;2023-07-13T06:26:42;13.70;;;9.70;;
20966;SDS011;10642;50.682;18.510;2023-07-13T06:29:09;11.33;;;8.30;;
20966;SDS011;10642;50.682;18.510;2023-07-13T06:31:36;13.23;;;8.33;;
20966;SDS011;10642;50.682;18.510;2023-07-13T06:34:03;14.87;;;8.87;;
20966;SDS011;10642;50.682;18.510;2023-07-13T06:36:30;12.57;;;9.20;;
20966;SDS011;10642;50.682;18.510;2023-07-13T06:38:57;13.20;;;9.33;;
20966;SDS011;10642;50.682;18.510;2023-07-13T06:41:24;14.57;;;9.83;;
20966;SDS011;10642;50.682;18.510;2023-07-13T06:43:52;16.90;;;9.77;;
20966;SDS011;10642;50.682;18.510;2023-07-13T06:46:21;19.43;;;10.57;;
20966;SDS011;10642;50.682;18.510;2023-07-13T06:48:48;16.40;;;9.27;;
20966;SDS011;10642;50.682;18.510;2023-07-13T06:51:15;13.90;;;8.53;;
20966;SDS011;10642;50.682;18.510;2023-07-13T06:53:42;13.77;;;8.97;;
20966;SDS011;10642;50.682;18.510;2023-07-13T06:56:10;12.43;;;9.23;;
20966;SDS011;10642;50.682;18.510;2023-07-13T06:58:37;16.53;;;8.63;;
20966;SDS011;10642;50.682;18.510;2023-07-13T07:01:04;13.87;;;8.87;;
20966;SDS011;10642;50.682;18.510;2023-07-13T07:03:34;11.40;;;7.63;;
20966;SDS011;10642;50.682;18.510;2023-07-13T07:06:02;13.43;;;7.50;;
20966;SDS011;10642;50.682;18.510;2023-07-13T07:08:29;12.97;;;7.97;;
20966;SDS011;10642;50.682;18.510;2023-07-13T07:10:56;12.33;;;8.13;;
20966;SDS011;10642;50.682;18.510;2023-07-13T07:13:23;11.47;;;8.37;;
20966;SDS011;10642;50.682;18.510;2023-07-13T07:15:50;12.00;;;7.60;;
20966;SDS011;10642;50.682;18.510;2023-07-13T07:18:19;12.97;;;6.57;;
20966;SDS011;10642;50.682;18.510;2023-07-13T07:20:46;11.63;;;6.33;;
20966;SDS011;10642;50.682;18.510;2023-07-13T07:23:13;12.77;;;4.87;;
20966;SDS011;10642;50.682;18.510;2023-07-13T07:25:43;11.07;;;4.80;;
20966;SDS011;10642;50.682;18.510;2023-07-13T07:28:11;8.73;;;4.83;;
20966;SDS011;10642;50.682;18.510;2023-07-13T07:30:41;6.97;;;4.50;;
20966;SDS011;10642;50.682;18.510;2023-07-13T07:33:12;8.63;;;4.57;;
20966;SDS011;10642;50.682;18.510;2023-07-13T07:35:39;6.73;;;4.03;;
20966;SDS011;10642;50.682;18.510;2023-07-13T07:38:26;6.80;;;3.57;;
20966;SDS011;10642;50.682;18.510;2023-07-13T07:40:53;6.47;;;3.77;;
20966;SDS011;10642;50.682;18.510;2023-07-13T07:43:23;7.93;;;3.63;;
20966;SDS011;10642;50.682;18.510;2023-07-13T07:45:49;6.13;;;3.53;;
20966;SDS011;10642;50.682;18.510;2023-07-13T07:48:16;10.57;;;3.70;;
20966;SDS011;10642;50.682;18.510;2023-07-13T07:50:43;7.30;;;3.20;;
20966;SDS011;10642;50.682;18.510;2023-07-13T07:53:10;8.13;;;3.60;;
20966;SDS011;10642;50.682;18.510;2023-07-13T07:55:37;5.50;;;2.90;;
20966;SDS011;10642;50.682;18.510;2023-07-13T07:58:24;6.50;;;3.17;;
20966;SDS011;10642;50.682;18.510;2023-07-13T08:00:54;5.80;;;2.50;;
20966;SDS011;10642;50.682;18.510;2023-07-13T08:03:24;7.33;;;1.83;;
20966;SDS011;10642;50.682;18.510;2023-07-13T08:05:53;4.30;;;2.57;;
20966;SDS011;10642;50.682;18.510;2023-07-13T08:08:24;4.80;;;1.97;;
20966;SDS011;10642;50.682;18.510;2023-07-13T08:10:51;3.80;;;1.87;;
20966;SDS011;10642;50.682;18.510;2023-07-13T08:13:20;4.77;;;1.73;;
20966;SDS011;10642;50.682;18.510;2023-07-13T08:15:47;4.17;;;1.53;;
20966;SDS011;10642;50.682;18.510;2023-07-13T08:18:14;4.30;;;1.93;;
20966;SDS011;10642;50.682;18.510;2023-07-13T08:20:41;7.47;;;1.80;;
20966;SDS011;10642;50.682;18.510;2023-07-13T08:23:09;3.37;;;1.90;;
20966;SDS011;10642;50.682;18.510;2023-07-13T08:25:36;4.73;;;1.67;;
20966;SDS011;10642;50.682;18.510;2023-07-13T08:28:03;3.93;;;1.93;;
20966;SDS011;10642;50.682;18.510;2023-07-13T08:30:30;3.40;;;1.33;;
20966;SDS011;10642;50.682;18.510;2023-07-13T08:32:57;9.00;;;1.67;;
20966;SDS011;10642;50.682;18.510;2023-07-13T08:35:24;4.93;;;1.70;;
20966;SDS011;10642;50.682;18.510;2023-07-13T08:37:52;3.73;;;1.50;;
20966;SDS011;10642;50.682;18.510;2023-07-13T08:40:19;8.60;;;1.90;;
20966;SDS011;10642;50.682;18.510;2023-07-13T08:42:54;2.80;;;1.30;;
20966;SDS011;10642;50.682;18.510;2023-07-13T08:45:43;2.73;;;1.60;;
20966;SDS011;10642;50.682;18.510;2023-07-13T08:48:12;2.90;;;1.70;;
20966;SDS011;10642;50.682;18.510;2023-07-13T08:50:47;4.97;;;1.90;;
20966;SDS011;10642;50.682;18.510;2023-07-13T08:53:40;3.87;;;1.30;;
20966;SDS011;10642;50.682;18.510;2023-07-13T08:56:20;4.80;;;1.73;;
20966;SDS011;10642;50.682;18.510;2023-07-13T08:58:49;4.40;;;2.23;;
20966;SDS011;10642;50.682;18.510;2023-07-13T09:03:48;7.70;;;1.70;;
20966;SDS011;10642;50.682;18.510;2023-07-13T09:06:17;4.27;;;1.70;;
20966;SDS011;10642;50.682;18.510;2023-07-13T09:08:59;4.50;;;1.90;;
20966;SDS011;10642;50.682;18.510;2023-07-13T09:14:25;5.87;;;1.67;;
20966;SDS011;10642;50.682;18.510;2023-07-13T09:16:53;5.83;;;2.47;;
20966;SDS011;10642;50.682;18.510;2023-07-13T09:19:26;5.63;;;1.97;;
20966;SDS011;10642;50.682;18.510;2023-07-13T09:21:54;5.43;;;2.30;;
20966;SDS011;10642;50.682;18.510;2023-07-13T09:27:08;4.00;;;1.50;;
20966;SDS011;10642;50.682;18.510;2023-07-13T09:29:38;4.57;;;2.27;;
20966;SDS011;10642;50.682;18.510;2023-07-13T09:32:09;3.40;;;1.80;;
20966;SDS011;10642;50.682;18.510;2023-07-13T09:34:37;5.03;;;1.87;;
20966;SDS011;10642;50.682;18.510;2023-07-13T09:37:04;5.33;;;1.83;;
20966;SDS011;10642;50.682;18.510;2023-07-13T09:39:36;5.60;;;2.10;;
20966;SDS011;10642;50.682;18.510;2023-07-13T09:42:17;6.63;;;2.10;;
20966;SDS011;10642;50.682;18.510;2023-07-13T09:47:19;5.43;;;2.10;;
20966;SDS011;10642;50.682;18.510;2023-07-13T09:49:57;3.40;;;1.67;;
20966;SDS011;10642;50.682;18.510;2023-07-13T09:52:39;8.90;;;2.30;;
20966;SDS011;10642;50.682;18.510;2023-07-13T09:55:22;5.47;;;1.80;;
20966;SDS011;10642;50.682;18.510;2023-07-13T09:57:50;6.27;;;2.30;;
20966;SDS011;10642;50.682;18.510;2023-07-13T10:00:21;4.53;;;2.50;;
20966;SDS011;10642;50.682;18.510;2023-07-13T10:02:49;7.10;;;3.00;;
20966;SDS011;10642;50.682;18.510;2023-07-13T10:05:24;9.13;;;2.50;;
20966;SDS011;10642;50.682;18.510;2023-07-13T10:07:52;5.07;;;2.27;;
20966;SDS011;10642;50.682;18.510;2023-07-13T10:10:22;5.37;;;2.00;;
20966;SDS011;10642;50.682;18.510;2023-07-13T10:12:49;7.13;;;1.90;;
20966;SDS011;10642;50.682;18.510;2023-07-13T10:15:22;7.23;;;2.40;;
20966;SDS011;10642;50.682;18.510;2023-07-13T10:17:53;5.53;;;2.47;;
20966;SDS011;10642;50.682;18.510;2023-07-13T10:20:22;3.93;;;1.90;;
20966;SDS011;10642;50.682;18.510;2023-07-13T10:22:54;6.33;;;2.53;;
20966;SDS011;10642;50.682;18.510;2023-07-13T10:25:24;11.23;;;3.00;;
20966;SDS011;10642;50.682;18.510;2023-07-13T10:28:53;8.90;;;2.23;;
20966;SDS011;10642;50.682;18.510;2023-07-13T10:30:48;8.70;;;2.50;;
20966;SDS011;10642;50.682;18.510;2023-07-13T10:33:15;6.73;;;2.30;;
20966;SDS011;10642;50.682;18.510;2023-07-13T10:35:43;6.70;;;2.53;;
20966;SDS011;10642;50.682;18.510;2023-07-13T10:38:11;13.90;;;3.03;;
20966;SDS011;10642;50.682;18.510;2023-07-13T10:43:06;7.40;;;3.50;;
20966;SDS011;10642;50.682;18.510;2023-07-13T10:45:35;6.70;;;2.63;;
20966;SDS011;10642;50.682;18.510;2023-07-13T10:48:03;4.73;;;2.20;;
20966;SDS011;10642;50.682;18.510;2023-07-13T10:50:30;9.70;;;2.67;;
20966;SDS011;10642;50.682;18.510;2023-07-13T10:53:17;3.67;;;2.00;;
20966;SDS011;10642;50.682;18.510;2023-07-13T10:58:19;3.37;;;2.00;;
20966;SDS011;10642;50.682;18.510;2023-07-13T11:00:47;4.33;;;2.00;;
20966;SDS011;10642;50.682;18.510;2023-07-13T11:03:16;4.47;;;2.30;;
20966;SDS011;10642;50.682;18.510;2023-07-13T11:05:44;8.40;;;2.40;;
20966;SDS011;10642;50.682;18.510;2023-07-13T11:08:19;5.80;;;2.63;;
20966;SDS011;10642;50.682;18.510;2023-07-13T11:10:51;3.70;;;1.93;;
20966;SDS011;10642;50.682;18.510;2023-07-13T11:18:47;3.63;;;2.30;;
20966;SDS011;10642;50.682;18.510;2023-07-13T11:21:16;5.17;;;2.27;;
20966;SDS011;10642;50.682;18.510;2023-07-13T11:24:04;4.93;;;2.53;;
20966;SDS011;10642;50.682;18.510;2023-07-13T11:26:38;3.67;;;2.50;;
20966;SDS011;10642;50.682;18.510;2023-07-13T11:29:48;4.20;;;2.37;;
20966;SDS011;10642;50.682;18.510;2023-07-13T11:31:57;2.73;;;2.00;;
20966;SDS011;10642;50.682;18.510;2023-07-13T11:34:28;3.33;;;2.50;;
20966;SDS011;10642;50.682;18.510;2023-07-13T11:36:57;4.83;;;3.00;;
20966;SDS011;10642;50.682;18.510;2023-07-13T11:39:28;3.27;;;2.10;;
20966;SDS011;10642;50.682;18.510;2023-07-13T11:41:58;3.53;;;2.67;;
20966;SDS011;10642;50.682;18.510;2023-07-13T11:44:26;4.27;;;2.27;;
20966;SDS011;10642;50.682;18.510;2023-07-13T11:46:57;5.53;;;2.70;;
20966;SDS011;10642;50.682;18.510;2023-07-13T11:49:31;4.37;;;2.80;;
20966;SDS011;10642;50.682;18.510;2023-07-13T11:51:59;3.57;;;2.67;;
20966;SDS011;10642;50.682;18.510;2023-07-13T11:54:30;3.13;;;2.10;;
20966;SDS011;10642;50.682;18.510;2023-07-13T11:56:58;4.60;;;2.47;;
20966;SDS011;10642;50.682;18.510;2023-07-13T11:59:29;6.50;;;3.20;;
20966;SDS011;10642;50.682;18.510;2023-07-13T12:01:56;4.40;;;2.17;;
20966;SDS011;10642;50.682;18.510;2023-07-13T12:04:28;5.17;;;2.13;;
20966;SDS011;10642;50.682;18.510;2023-07-13T12:07:03;3.50;;;2.20;;
20966;SDS011;10642;50.682;18.510;2023-07-13T12:09:30;2.93;;;2.10;;
20966;SDS011;10642;50.682;18.510;2023-07-13T12:11:57;3.00;;;2.30;;
20966;SDS011;10642;50.682;18.510;2023-07-13T12:14:26;5.17;;;1.97;;
20966;SDS011;10642;50.682;18.510;2023-07-13T12:16:53;3.90;;;1.70;;
20966;SDS011;10642;50.682;18.510;2023-07-13T12:19:25;4.03;;;2.10;;
20966;SDS011;10642;50.682;18.510;2023-07-13T12:21:57;6.33;;;2.27;;
20966;SDS011;10642;50.682;18.510;2023-07-13T12:24:24;4.40;;;2.10;;
20966;SDS011;10642;50.682;18.510;2023-07-13T12:26:53;3.57;;;1.83;;
20966;SDS011;10642;50.682;18.510;2023-07-13T12:29:20;5.43;;;1.73;;
20966;SDS011;10642;50.682;18.510;2023-07-13T12:31:48;1.90;;;1.63;;
20966;SDS011;10642;50.682;18.510;2023-07-13T12:34:19;5.50;;;2.40;;
20966;SDS011;10642;50.682;18.510;2023-07-13T12:42:09;4.70;;;2.40;;
20966;SDS011;10642;50.682;18.510;2023-07-13T12:44:41;3.97;;;2.47;;
20966;SDS011;10642;50.682;18.510;2023-07-13T12:47:12;3.47;;;2.33;;
20966;SDS011;10642;50.682;18.510;2023-07-13T12:49:42;5.53;;;2.50;;
20966;SDS011;10642;50.682;18.510;2023-07-13T12:52:13;4.30;;;3.30;;
20966;SDS011;10642;50.682;18.510;2023-07-13T12:54:41;5.37;;;3.10;;
20966;SDS011;10642;50.682;18.510;2023-07-13T12:57:21;4.40;;;3.27;;
20966;SDS011;10642;50.682;18.510;2023-07-13T12:59:51;2.80;;;2.50;;
20966;SDS011;10642;50.682;18.510;2023-07-13T13:02:32;4.00;;;2.70;;
20966;SDS011;10642;50.682;18.510;2023-07-13T13:05:01;2.60;;;2.40;;
20966;SDS011;10642;50.682;18.510;2023-07-13T13:07:28;6.47;;;2.70;;
20966;SDS011;10642;50.682;18.510;2023-07-13T13:09:56;4.57;;;3.07;;
20966;SDS011;10642;50.682;18.510;2023-07-13T13:12:23;5.90;;;4.10;;
20966;SDS011;10642;50.682;18.510;2023-07-13T13:14:53;5.73;;;3.80;;
20966;SDS011;10642;50.682;18.510;2023-07-13T13:17:21;3.40;;;3.00;;
20966;SDS011;10642;50.682;18.510;2023-07-13T13:19:51;6.93;;;3.80;;
20966;SDS011;10642;50.682;18.510;2023-07-13T13:22:21;4.10;;;3.70;;
20966;SDS011;10642;50.682;18.510;2023-07-13T13:24:48;3.70;;;3.20;;
20966;SDS011;10642;50.682;18.510;2023-07-13T13:27:16;5.07;;;4.00;;
20966;SDS011;10642;50.682;18.510;2023-07-13T13:29:45;5.50;;;3.30;;
20966;SDS011;10642;50.682;18.510;2023-07-13T13:32:12;3.13;;;2.60;;
20966;SDS011;10642;50.682;18.510;2023-07-13T13:34:40;4.63;;;2.60;;
20966;SDS011;10642;50.682;18.510;2023-07-13T13:37:26;3.47;;;3.07;;
20966;SDS011;10642;50.682;18.510;2023-07-13T13:39:53;5.07;;;3.20;;
20966;SDS011;10642;50.682;18.510;2023-07-13T13:42:34;3.30;;;2.53;;
20966;SDS011;10642;50.682;18.510;2023-07-13T13:45:01;4.13;;;2.20;;
20966;SDS011;10642;50.682;18.510;2023-07-13T13:47:30;4.10;;;2.53;;
20966;SDS011;10642;50.682;18.510;2023-07-13T13:49:58;4.10;;;2.47;;
20966;SDS011;10642;50.682;18.510;2023-07-13T13:52:25;2.93;;;1.80;;
20966;SDS011;10642;50.682;18.510;2023-07-13T13:54:52;1.90;;;1.70;;
20966;SDS011;10642;50.682;18.510;2023-07-13T13:57:23;2.07;;;1.80;;
20966;SDS011;10642;50.682;18.510;2023-07-13T13:59:51;4.60;;;2.43;;
20966;SDS011;10642;50.682;18.510;2023-07-13T14:02:23;3.10;;;2.80;;
20966;SDS011;10642;50.682;18.510;2023-07-13T14:05:01;2.33;;;1.93;;
20966;SDS011;10642;50.682;18.510;2023-07-13T14:07:29;2.80;;;1.60;;
20966;SDS011;10642;50.682;18.510;2023-07-13T14:09:59;4.43;;;1.80;;
20966;SDS011;10642;50.682;18.510;2023-07-13T14:12:27;2.53;;;1.80;;
20966;SDS011;10642;50.682;18.510;2023-07-13T14:14:57;2.27;;;1.60;;
20966;SDS011;10642;50.682;18.510;2023-07-13T14:17:25;2.63;;;1.83;;
20966;SDS011;10642;50.682;18.510;2023-07-13T14:19:54;4.23;;;1.67;;
20966;SDS011;10642;50.682;18.510;2023-07-13T14:22:24;2.47;;;1.70;;
20966;SDS011;10642;50.682;18.510;2023-07-13T14:24:55;2.40;;;1.67;;
20966;SDS011;10642;50.682;18.510;2023-07-13T14:27:24;3.50;;;1.60;;
20966;SDS011;10642;50.682;18.510;2023-07-13T14:29:51;1.90;;;1.37;;
20966;SDS011;10642;50.682;18.510;2023-07-13T14:32:18;4.90;;;1.50;;
20966;SDS011;10642;50.682;18.510;2023-07-13T14:34:45;1.80;;;1.40;;
20966;SDS011;10642;50.682;18.510;2023-07-13T14:37:12;3.90;;;1.70;;
20966;SDS011;10642;50.682;18.510;2023-07-13T14:39:40;3.17;;;1.47;;
20966;SDS011;10642;50.682;18.510;2023-07-13T14:42:09;1.83;;;1.27;;
20966;SDS011;10642;50.682;18.510;2023-07-13T14:44:37;5.80;;;1.50;;
20966;SDS011;10642;50.682;18.510;2023-07-13T14:47:04;4.43;;;1.40;;
20966;SDS011;10642;50.682;18.510;2023-07-13T14:49:36;2.50;;;1.17;;
20966;SDS011;10642;50.682;18.510;2023-07-13T14:54:40;3.10;;;1.50;;
20966;SDS011;10642;50.682;18.510;2023-07-13T14:57:11;1.83;;;1.30;;
20966;SDS011;10642;50.682;18.510;2023-07-13T14:59:38;2.07;;;1.30;;
20966;SDS011;10642;50.682;18.510;2023-07-13T15:02:25;2.00;;;1.50;;
20966;SDS011;10642;50.682;18.510;2023-07-13T15:04:53;2.83;;;1.50;;
20966;SDS011;10642;50.682;18.510;2023-07-13T15:07:21;3.13;;;1.57;;